Time;durP1;ratioP1;P1;durP2;ratioP2;P2;SDS_P1;SDS_P2;PMS_P1;PMS_P2;Temp;Humidity;BMP_temperature;BMP_pressure;BME280_temperature;BME280_humidity;BME280_pressure;Samples;Min_cycle;Max_cycle;Signal;HPM_P1;HPM_P2
2023/12/05 07:03:15;;;;;;;16.37;7.80;;;;;;;;;;5087478;23;19929;-82
2023/12/05 07:05:40;;;;;;;16.10;7.90;;;;;;;;;;4971157;28;20035;-82
2023/12/05 07:08:06;;;;;;;15.17;8.00;;;;;;;;;;4974217;28;20546;-82
2023/12/05 07:10:32;;;;;;;19.87;8.70;;;;;;;;;;4974746;28;20438;-80
2023/12/05 07:12:57;;;;;;;17.47;8.27;;;;;;;;;;4987636;28;20019;-81
2023/12/05 07:15:22;;;;;;;18.67;8.83;;;;;;;;;;4967131;28;20041;-82
2023/12/05 07:17:48;;;;;;;19.43;8.77;;;;;;;;;;4965841;28;20022;-82
2023/12/05 07:20:13;;;;;;;19.53;7.83;;;;;;;;;;4975682;28;20110;-82
2023/12/05 07:22:38;;;;;;;16.70;7.97;;;;;;;;;;4975840;28;20032;-83
2023/12/05 07:25:04;;;;;;;18.70;8.93;;;;;;;;;;4974556;28;20082;-82
2023/12/05 07:27:29;;;;;;;18.33;8.90;;;;;;;;;;4974588;28;20025;-82
2023/12/05 07:29:54;;;;;;;19.23;9.37;;;;;;;;;;4989434;28;20109;-82
2023/12/05 07:32:20;;;;;;;18.80;8.67;;;;;;;;;;4991697;28;20034;-82
2023/12/05 07:34:45;;;;;;;20.30;9.20;;;;;;;;;;4975608;28;20030;-82
2023/12/05 07:37:10;;;;;;;20.93;9.60;;;;;;;;;;4974615;28;20477;-83
2023/12/05 07:39:36;;;;;;;20.87;9.73;;;;;;;;;;4974482;28;20089;-83
2023/12/05 07:42:01;;;;;;;21.70;9.53;;;;;;;;;;4975501;28;20022;-83
2023/12/05 07:44:27;;;;;;;20.33;9.93;;;;;;;;;;4974087;28;20034;-84
2023/12/05 07:46:52;;;;;;;20.07;8.67;;;;;;;;;;4973569;28;20458;-83
2023/12/05 07:49:17;;;;;;;21.63;10.50;;;;;;;;;;4970772;28;20062;-83
2023/12/05 07:51:42;;;;;;;23.10;10.60;;;;;;;;;;4972719;28;20026;-83
2023/12/05 07:54:08;;;;;;;23.63;10.03;;;;;;;;;;4973357;28;20022;-84
2023/12/05 07:56:33;;;;;;;21.23;9.60;;;;;;;;;;4975436;28;20042;-84
2023/12/05 07:58:58;;;;;;;26.10;11.60;;;;;;;;;;4977298;28;20122;-83
2023/12/05 08:01:23;;;;;;;26.40;11.27;;;;;;;;;;4969273;28;20347;-83
2023/12/05 08:03:49;;;;;;;23.27;10.80;;;;;;;;;;4974440;28;20093;-83
2023/12/05 08:06:14;;;;;;;25.17;10.80;;;;;;;;;;4974819;28;20058;-82
2023/12/05 08:08:39;;;;;;;23.97;11.07;;;;;;;;;;4961528;28;20037;-83
2023/12/05 08:11:05;;;;;;;26.80;11.30;;;;;;;;;;4959115;28;20136;-83
2023/12/05 08:13:31;;;;;;;31.10;12.50;;;;;;;;;;4958669;28;21749;-83
2023/12/05 08:15:56;;;;;;;27.13;11.53;;;;;;;;;;4956836;28;20113;-83
2023/12/05 08:18:21;;;;;;;29.60;11.90;;;;;;;;;;4972986;28;20110;-83
2023/12/05 08:20:46;;;;;;;28.83;12.50;;;;;;;;;;4973306;28;20023;-84
2023/12/05 08:23:12;;;;;;;34.27;13.13;;;;;;;;;;4972756;28;20474;-84
2023/12/05 08:25:37;;;;;;;32.50;12.53;;;;;;;;;;4963870;28;20358;-83
2023/12/05 08:28:02;;;;;;;30.27;12.73;;;;;;;;;;4973332;28;20034;-82
2023/12/05 08:30:28;;;;;;;35.70;13.40;;;;;;;;;;4975340;28;20027;-83
2023/12/05 08:32:56;;;;;;;34.33;13.73;;;;;;;;;;4971856;28;20031;-83
2023/12/05 08:35:22;;;;;;;30.10;12.67;;;;;;;;;;4972272;28;20034;-83
2023/12/05 08:37:47;;;;;;;32.93;13.23;;;;;;;;;;4976819;28;20023;-83
2023/12/05 08:40:13;;;;;;;37.77;13.63;;;;;;;;;;4973950;28;20430;-83
2023/12/05 08:42:39;;;;;;;36.30;15.03;;;;;;;;;;4977025;28;20041;-83
2023/12/05 08:45:04;;;;;;;32.60;13.27;;;;;;;;;;4974779;28;20160;-83
2023/12/05 08:47:30;;;;;;;30.30;12.90;;;;;;;;;;4972453;28;20395;-83
2023/12/05 08:49:55;;;;;;;34.77;13.43;;;;;;;;;;4972319;28;20101;-83
2023/12/05 08:52:20;;;;;;;34.50;14.20;;;;;;;;;;4979079;28;20045;-83
2023/12/05 08:54:45;;;;;;;33.63;13.33;;;;;;;;;;4978571;28;20029;-82
2023/12/05 08:57:11;;;;;;;34.90;14.07;;;;;;;;;;4973064;28;20085;-83
2023/12/05 08:59:37;;;;;;;36.67;13.17;;;;;;;;;;4975178;28;20045;-82
2023/12/05 09:02:02;;;;;;;32.50;12.10;;;;;;;;;;4966674;28;20034;-83
2023/12/05 09:04:28;;;;;;;35.37;14.70;;;;;;;;;;4963993;28;20462;-83
2023/12/05 09:06:53;;;;;;;38.07;14.80;;;;;;;;;;4972669;28;20081;-83
2023/12/05 09:09:18;;;;;;;37.10;14.40;;;;;;;;;;4969696;28;20500;-82
2023/12/05 09:11:45;;;;;;;35.87;14.57;;;;;;;;;;4977077;28;20026;-85
2023/12/05 09:14:10;;;;;;;36.23;14.93;;;;;;;;;;4978152;28;20466;-83
2023/12/05 09:16:35;;;;;;;44.53;15.37;;;;;;;;;;4964047;28;20081;-83
2023/12/05 09:19:01;;;;;;;39.33;15.10;;;;;;;;;;4969097;28;20027;-84
2023/12/05 09:21:26;;;;;;;38.80;14.97;;;;;;;;;;4968883;28;20138;-83
2023/12/05 09:23:51;;;;;;;35.97;14.27;;;;;;;;;;4978652;28;20050;-82
2023/12/05 09:26:18;;;;;;;36.47;14.33;;;;;;;;;;4969286;28;20031;-83
2023/12/05 09:28:43;;;;;;;43.30;15.83;;;;;;;;;;4969809;28;20343;-83
2023/12/05 09:31:08;;;;;;;36.93;13.90;;;;;;;;;;4970401;28;20025;-85
2023/12/05 09:33:34;;;;;;;34.63;14.23;;;;;;;;;;4972940;28;20019;-84
2023/12/05 09:35:59;;;;;;;35.50;14.17;;;;;;;;;;4970071;28;20081;-85
2023/12/05 09:38:24;;;;;;;33.93;12.87;;;;;;;;;;4977303;28;20033;-85
2023/12/05 09:40:51;;;;;;;39.33;15.50;;;;;;;;;;4970207;28;20030;-85
2023/12/05 09:43:19;;;;;;;42.73;16.57;;;;;;;;;;4978703;28;20092;-85
2023/12/05 09:45:45;;;;;;;35.10;14.63;;;;;;;;;;4970845;28;20125;-86
2023/12/05 09:48:11;;;;;;;35.67;14.70;;;;;;;;;;4971673;28;20386;-87
2023/12/05 09:50:36;;;;;;;39.47;14.63;;;;;;;;;;4971217;28;20023;-87
2023/12/05 09:53:02;;;;;;;35.33;13.63;;;;;;;;;;4969634;28;20165;-86
2023/12/05 09:55:27;;;;;;;31.27;13.07;;;;;;;;;;4974634;28;20030;-87
2023/12/05 09:57:53;;;;;;;36.10;14.67;;;;;;;;;;4962642;28;20070;-84
2023/12/05 10:00:18;;;;;;;36.50;13.57;;;;;;;;;;4981684;28;20029;-84
2023/12/05 10:02:46;;;;;;;33.37;13.00;;;;;;;;;;4971580;28;20048;-84
2023/12/05 10:05:13;;;;;;;31.73;13.00;;;;;;;;;;4977043;28;20442;-84
2023/12/05 10:07:39;;;;;;;30.37;10.93;;;;;;;;;;4972814;28;20023;-84
2023/12/05 10:10:05;;;;;;;27.50;11.17;;;;;;;;;;4973827;28;20081;-84
2023/12/05 10:12:31;;;;;;;26.57;11.17;;;;;;;;;;4986553;28;20117;-85
2023/12/05 10:14:56;;;;;;;32.90;12.20;;;;;;;;;;4970782;28;20114;-90
2023/12/05 10:17:22;;;;;;;30.73;13.70;;;;;;;;;;4974648;28;20034;-84
2023/12/05 10:19:47;;;;;;;29.13;11.93;;;;;;;;;;4972874;28;20462;-90
2023/12/05 10:22:13;;;;;;;25.77;11.37;;;;;;;;;;4972499;28;20023;-90
2023/12/05 10:24:41;;;;;;;29.23;11.67;;;;;;;;;;4973001;28;20054;-90
2023/12/05 10:27:07;;;;;;;31.97;12.47;;;;;;;;;;4973668;28;20584;-90
2023/12/05 10:29:36;;;;;;;27.00;10.63;;;;;;;;;;4964445;28;20034;-92
2023/12/05 10:32:01;;;;;;;27.97;10.63;;;;;;;;;;4963566;28;20027;-92
2023/12/05 10:34:26;;;;;;;32.13;10.73;;;;;;;;;;4962102;28;20027;-91
2023/12/05 10:37:01;;;;;;;29.33;11.20;;;;;;;;;;4970151;28;20022;-90
2023/12/05 10:39:34;;;;;;;24.50;9.60;;;;;;;;;;4976655;28;20023;-91
2023/12/05 10:41:59;;;;;;;27.40;11.23;;;;;;;;;;4966291;28;20396;-93
2023/12/05 10:44:24;;;;;;;28.97;12.73;;;;;;;;;;4964246;28;20109;-90
2023/12/05 10:46:54;;;;;;;28.47;11.07;;;;;;;;;;4964610;28;20057;-91
2023/12/05 10:49:19;;;;;;;27.50;9.83;;;;;;;;;;4977301;28;20022;-93
2023/12/05 10:51:45;;;;;;;29.90;10.57;;;;;;;;;;4973421;28;20102;-92
2023/12/05 10:54:10;;;;;;;30.47;11.53;;;;;;;;;;4973236;28;20018;-93
2023/12/05 10:56:36;;;;;;;32.67;12.47;;;;;;;;;;4973151;28;20014;-94
2023/12/05 10:59:03;;;;;;;31.43;12.00;;;;;;;;;;4972897;28;20034;-92
2023/12/05 11:01:28;;;;;;;31.87;14.00;;;;;;;;;;4979215;28;20058;-95
2023/12/05 11:03:58;;;;;;;35.87;13.23;;;;;;;;;;4973008;28;20023;-92
2023/12/05 11:06:25;;;;;;;30.77;12.53;;;;;;;;;;4972761;28;20030;-90
2023/12/05 11:08:50;;;;;;;32.10;12.07;;;;;;;;;;4972957;28;20015;-92
2023/12/05 11:11:16;;;;;;;27.30;11.93;;;;;;;;;;4972677;28;20061;-92
2023/12/05 11:13:42;;;;;;;30.13;12.13;;;;;;;;;;4970200;28;20019;-93
2023/12/05 11:16:13;;;;;;;29.77;12.87;;;;;;;;;;4973942;28;20053;-92
2023/12/05 11:18:39;;;;;;;30.97;12.90;;;;;;;;;;4972889;28;20050;-94
2023/12/05 11:21:17;;;;;;;32.73;12.03;;;;;;;;;;4975277;28;20031;-91
2023/12/05 11:24:01;;;;;;;28.27;11.80;;;;;;;;;;4972800;28;20031;-91
2023/12/05 11:26:45;;;;;;;32.77;12.13;;;;;;;;;;4976230;28;20043;-92
2023/12/05 11:29:26;;;;;;;30.13;11.80;;;;;;;;;;4977293;28;20358;-92
2023/12/05 11:31:57;;;;;;;26.50;11.00;;;;;;;;;;4966985;28;20016;-92
2023/12/05 11:34:38;;;;;;;23.57;9.63;;;;;;;;;;4972745;28;20034;-91
2023/12/05 11:37:06;;;;;;;26.10;11.23;;;;;;;;;;4987561;28;20094;-92
2023/12/05 11:39:31;;;;;;;26.97;9.70;;;;;;;;;;4970487;28;20031;-92
2023/12/05 11:42:09;;;;;;;23.13;9.90;;;;;;;;;;4974224;28;20069;-92
2023/12/05 11:44:36;;;;;;;24.03;9.53;;;;;;;;;;4977474;28;20030;-94
2023/12/05 11:47:03;;;;;;;18.43;8.40;;;;;;;;;;4998677;28;20047;-92
2023/12/05 11:49:39;;;;;;;18.83;7.97;;;;;;;;;;4975767;28;20019;-92
2023/12/05 11:52:09;;;;;;;17.17;7.20;;;;;;;;;;4971843;28;20054;-94
2023/12/05 11:54:35;;;;;;;17.77;7.70;;;;;;;;;;4991955;28;20025;-93
2023/12/05 11:57:11;;;;;;;18.70;7.97;;;;;;;;;;4976660;28;20462;-93
2023/12/05 11:59:40;;;;;;;19.87;8.77;;;;;;;;;;4973665;28;20046;-93
2023/12/05 12:02:06;;;;;;;18.70;8.27;;;;;;;;;;4969896;28;20033;-85
2023/12/05 12:04:32;;;;;;;19.20;7.50;;;;;;;;;;4982974;28;20022;-94
2023/12/05 12:06:57;;;;;;;20.77;8.43;;;;;;;;;;5000046;28;20027;-92
2023/12/05 12:09:22;;;;;;;16.27;7.77;;;;;;;;;;4972018;28;20018;-95
2023/12/05 12:11:48;;;;;;;20.87;8.17;;;;;;;;;;4975462;28;20069;-93
2023/12/05 12:14:14;;;;;;;19.30;8.10;;;;;;;;;;4975654;28;20053;-93
2023/12/05 12:16:39;;;;;;;20.13;7.50;;;;;;;;;;4987121;28;20026;-93
2023/12/05 12:19:04;;;;;;;22.97;8.20;;;;;;;;;;4975646;28;20019;-90
2023/12/05 12:21:30;;;;;;;21.13;8.90;;;;;;;;;;4975495;28;20034;-93
2023/12/05 12:23:56;;;;;;;20.73;8.50;;;;;;;;;;4973386;28;20026;-94
2023/12/05 12:26:21;;;;;;;24.63;9.77;;;;;;;;;;4971909;28;20026;-92
2023/12/05 12:28:49;;;;;;;21.43;9.03;;;;;;;;;;4991297;28;20026;-93
2023/12/05 12:31:24;;;;;;;21.53;9.07;;;;;;;;;;4974803;28;20058;-94
2023/12/05 12:33:49;;;;;;;23.30;9.67;;;;;;;;;;4991508;28;20034;-92
2023/12/05 12:36:14;;;;;;;23.50;9.27;;;;;;;;;;4992924;28;20027;-92
2023/12/05 12:38:40;;;;;;;24.07;9.20;;;;;;;;;;4974210;28;20077;-92
2023/12/05 12:41:09;;;;;;;24.90;8.93;;;;;;;;;;4975422;28;20042;-92
2023/12/05 12:43:34;;;;;;;14.13;5.70;;;;;;;;;;4963171;28;20110;-91
2023/12/05 12:45:59;;;;;;;22.70;8.77;;;;;;;;;;4975087;28;20533;-93
2023/12/05 12:48:25;;;;;;;20.70;8.40;;;;;;;;;;4976798;28;20122;-92
2023/12/05 12:50:50;;;;;;;19.27;8.00;;;;;;;;;;4995371;28;20019;-92
2023/12/05 12:53:15;;;;;;;22.80;9.23;;;;;;;;;;4967681;28;20100;-92
2023/12/05 12:55:41;;;;;;;19.10;8.13;;;;;;;;;;4989703;28;20027;-86
2023/12/05 12:58:06;;;;;;;21.20;8.83;;;;;;;;;;4973781;28;20034;-84
2023/12/05 13:00:39;;;;;;;18.90;7.60;;;;;;;;;;4976388;28;20030;-87
2023/12/05 13:03:06;;;;;;;16.57;6.73;;;;;;;;;;4976332;28;20037;-87
2023/12/05 13:05:32;;;;;;;23.20;7.43;;;;;;;;;;4973974;28;20046;-86
2023/12/05 13:07:57;;;;;;;15.87;6.77;;;;;;;;;;4965365;28;20058;-87
2023/12/05 13:10:23;;;;;;;17.63;7.13;;;;;;;;;;4971464;28;20059;-87
2023/12/05 13:12:48;;;;;;;18.80;6.37;;;;;;;;;;4966815;28;20028;-88
2023/12/05 13:15:17;;;;;;;15.87;6.67;;;;;;;;;;4969976;28;20027;-86
2023/12/05 13:17:55;;;;;;;16.47;6.57;;;;;;;;;;4966122;28;20114;-87
2023/12/05 13:20:20;;;;;;;15.70;6.67;;;;;;;;;;4971370;28;20130;-86
2023/12/05 13:22:45;;;;;;;17.10;6.87;;;;;;;;;;4965492;28;20449;-87
2023/12/05 13:25:11;;;;;;;14.73;5.43;;;;;;;;;;4986824;28;20031;-86
2023/12/05 13:27:38;;;;;;;16.10;6.00;;;;;;;;;;4968987;28;20027;-88
2023/12/05 13:30:04;;;;;;;14.57;6.30;;;;;;;;;;4972465;28;20034;-87
2023/12/05 13:32:29;;;;;;;18.00;6.20;;;;;;;;;;4966737;28;20094;-87
2023/12/05 13:34:54;;;;;;;17.10;6.37;;;;;;;;;;4977030;28;20054;-88
2023/12/05 13:37:19;;;;;;;15.93;6.53;;;;;;;;;;4993147;28;20035;-89
2023/12/05 13:39:45;;;;;;;18.30;7.10;;;;;;;;;;4974523;28;20045;-88
2023/12/05 13:42:10;;;;;;;21.07;7.60;;;;;;;;;;4974648;28;20045;-87
2023/12/05 13:44:39;;;;;;;13.77;6.27;;;;;;;;;;4982925;28;20030;-88
2023/12/05 13:47:04;;;;;;;13.40;5.90;;;;;;;;;;4969325;28;20042;-90
2023/12/05 13:49:30;;;;;;;20.03;7.00;;;;;;;;;;4968533;28;20022;-89
2023/12/05 13:51:55;;;;;;;15.43;6.17;;;;;;;;;;4975748;28;20019;-91
2023/12/05 13:54:20;;;;;;;16.43;6.83;;;;;;;;;;4978137;28;20526;-91
2023/12/05 13:56:46;;;;;;;21.20;6.97;;;;;;;;;;4973471;28;20075;-92
2023/12/05 13:59:11;;;;;;;14.30;6.43;;;;;;;;;;4975970;28;20046;-92
2023/12/05 14:01:36;;;;;;;19.47;7.17;;;;;;;;;;4974311;28;20062;-91
2023/12/05 14:04:02;;;;;;;19.87;6.57;;;;;;;;;;4973693;28;20038;-91
2023/12/05 14:06:28;;;;;;;17.77;6.90;;;;;;;;;;4973165;28;20046;-91
2023/12/05 14:08:53;;;;;;;17.27;7.03;;;;;;;;;;4973303;28;20038;-92
2023/12/05 14:11:18;;;;;;;17.27;7.10;;;;;;;;;;4973124;28;20062;-92
2023/12/05 14:13:44;;;;;;;18.50;7.60;;;;;;;;;;4972368;28;20022;-91
2023/12/05 14:16:09;;;;;;;18.13;7.43;;;;;;;;;;4974596;28;20027;-92
2023/12/05 14:18:34;;;;;;;19.73;7.33;;;;;;;;;;4973317;28;20062;-93
2023/12/05 14:20:59;;;;;;;19.10;8.43;;;;;;;;;;4973391;28;20037;-92
2023/12/05 14:23:25;;;;;;;20.17;7.93;;;;;;;;;;4973274;28;20156;-92
2023/12/05 14:25:50;;;;;;;19.47;7.97;;;;;;;;;;4966953;28;20066;-93
2023/12/05 14:28:15;;;;;;;18.00;7.80;;;;;;;;;;4973547;28;20023;-91
2023/12/05 14:30:41;;;;;;;19.10;7.77;;;;;;;;;;4960858;28;20024;-92
2023/12/05 14:33:06;;;;;;;24.90;8.03;;;;;;;;;;4970911;28;20117;-93
2023/12/05 14:35:31;;;;;;;21.73;9.47;;;;;;;;;;4975700;28;20030;-93
2023/12/05 14:37:57;;;;;;;21.23;8.20;;;;;;;;;;4962507;28;20492;-92
2023/12/05 14:40:22;;;;;;;24.27;9.17;;;;;;;;;;4964046;28;20031;-93
2023/12/05 14:42:48;;;;;;;24.40;8.97;;;;;;;;;;4973265;28;20065;-93
2023/12/05 14:45:13;;;;;;;24.80;9.50;;;;;;;;;;4974179;28;20048;-92
2023/12/05 14:47:39;;;;;;;23.53;9.07;;;;;;;;;;4980734;28;20027;-92
2023/12/05 14:50:04;;;;;;;24.60;8.97;;;;;;;;;;4973080;28;20015;-92
2023/12/05 14:52:29;;;;;;;21.57;8.83;;;;;;;;;;4973161;28;20023;-93
2023/12/05 14:54:55;;;;;;;20.73;8.60;;;;;;;;;;4974397;28;20500;-92
2023/12/05 14:57:20;;;;;;;19.47;8.03;;;;;;;;;;4970219;28;20050;-92
2023/12/05 14:59:45;;;;;;;28.40;9.30;;;;;;;;;;4965937;28;20015;-92
2023/12/05 15:02:10;;;;;;;25.03;8.50;;;;;;;;;;4976784;28;20114;-93
2023/12/05 15:04:37;;;;;;;24.40;9.97;;;;;;;;;;4977029;28;20050;-92
2023/12/05 15:07:02;;;;;;;19.17;7.63;;;;;;;;;;4976358;28;20355;-92
2023/12/05 15:09:27;;;;;;;20.33;7.80;;;;;;;;;;4976792;28;20128;-93
2023/12/05 15:11:53;;;;;;;22.13;7.90;;;;;;;;;;4976765;28;20011;-92
2023/12/05 15:14:18;;;;;;;27.07;9.10;;;;;;;;;;4976665;28;20114;-92
2023/12/05 15:16:44;;;;;;;26.03;9.13;;;;;;;;;;4976245;28;20053;-92
2023/12/05 15:19:09;;;;;;;21.37;8.67;;;;;;;;;;4976574;28;20018;-92
2023/12/05 15:21:34;;;;;;;25.07;9.10;;;;;;;;;;4976540;28;20061;-92
2023/12/05 15:23:59;;;;;;;25.63;9.37;;;;;;;;;;4972528;28;20426;-91
2023/12/05 15:26:26;;;;;;;20.07;7.43;;;;;;;;;;4975897;28;20100;-92
2023/12/05 15:28:51;;;;;;;31.47;9.53;;;;;;;;;;4976369;28;20030;-92
2023/12/05 15:31:18;;;;;;;25.07;9.07;;;;;;;;;;4976300;28;20410;-92
2023/12/05 15:33:43;;;;;;;26.57;9.37;;;;;;;;;;4976654;28;20335;-92
2023/12/05 15:36:09;;;;;;;22.70;9.47;;;;;;;;;;4976098;28;20048;-92
2023/12/05 15:38:34;;;;;;;24.77;10.30;;;;;;;;;;4976184;28;20030;-92
2023/12/05 15:40:59;;;;;;;22.43;8.40;;;;;;;;;;4976098;28;20098;-94
2023/12/05 15:43:25;;;;;;;27.90;10.07;;;;;;;;;;4976245;28;20026;-93
2023/12/05 15:45:51;;;;;;;20.50;8.50;;;;;;;;;;4972858;28;20058;-93
2023/12/05 15:48:16;;;;;;;22.43;8.87;;;;;;;;;;4987002;28;20027;-93
2023/12/05 15:50:41;;;;;;;20.97;8.33;;;;;;;;;;4976177;28;20027;-93
2023/12/05 15:53:07;;;;;;;20.77;7.93;;;;;;;;;;4972967;28;20469;-92
2023/12/05 15:55:35;;;;;;;23.13;9.00;;;;;;;;;;4975569;28;20042;-92
2023/12/05 15:58:01;;;;;;;24.87;9.10;;;;;;;;;;4971153;28;20027;-93
2023/12/05 16:00:27;;;;;;;23.77;9.10;;;;;;;;;;4963448;28;20015;-93
2023/12/05 16:02:52;;;;;;;21.77;9.00;;;;;;;;;;4975699;28;20030;-93
2023/12/05 16:05:17;;;;;;;21.73;8.57;;;;;;;;;;4976348;28;20062;-91
2023/12/05 16:07:42;;;;;;;27.80;8.77;;;;;;;;;;4972718;28;20472;-92
2023/12/05 16:10:09;;;;;;;21.30;8.30;;;;;;;;;;4974281;28;20034;-91
2023/12/05 16:12:34;;;;;;;28.23;8.57;;;;;;;;;;4976544;28;20363;-92
2023/12/05 16:15:00;;;;;;;22.23;8.73;;;;;;;;;;4975433;28;20027;-92
2023/12/05 16:17:25;;;;;;;27.30;10.13;;;;;;;;;;4975363;28;20022;-91
2023/12/05 16:19:51;;;;;;;29.70;9.30;;;;;;;;;;4975374;28;20018;-92
2023/12/05 16:22:16;;;;;;;24.67;9.70;;;;;;;;;;4975218;28;20027;-95
2023/12/05 16:24:41;;;;;;;20.37;8.83;;;;;;;;;;4976509;28;20021;-93
2023/12/05 16:27:07;;;;;;;24.30;9.40;;;;;;;;;;4978329;28;20205;-94
2023/12/05 16:29:35;;;;;;;20.93;8.80;;;;;;;;;;4979855;28;20365;-94
2023/12/05 16:32:00;;;;;;;23.87;9.17;;;;;;;;;;4980869;28;20023;-93
2023/12/05 16:34:25;;;;;;;22.27;9.33;;;;;;;;;;4984991;28;20023;-93
2023/12/05 16:36:51;;;;;;;27.80;10.27;;;;;;;;;;4977780;28;20026;-94
2023/12/05 16:39:16;;;;;;;25.27;9.40;;;;;;;;;;4977544;28;20029;-94
2023/12/05 16:41:41;;;;;;;22.27;8.90;;;;;;;;;;4979224;28;20030;-93
2023/12/05 16:44:10;;;;;;;27.00;9.80;;;;;;;;;;4979652;28;20026;-94
2023/12/05 16:46:35;;;;;;;23.53;8.67;;;;;;;;;;4987450;28;20134;-94
2023/12/05 17:01:09;;;;;;;17.63;6.70;;;;;;;;;;4989950;28;20038;-93
2023/12/05 17:03:35;;;;;;;25.00;9.60;;;;;;;;;;4977567;28;20031;-93
2023/12/05 17:06:03;;;;;;;24.63;9.40;;;;;;;;;;4995981;28;20038;-94
2023/12/05 17:08:31;;;;;;;21.00;7.77;;;;;;;;;;4994392;28;20054;-96
2023/12/05 17:10:56;;;;;;;29.23;9.60;;;;;;;;;;5000728;28;20063;-96
2023/12/05 17:13:22;;;;;;;41.13;13.70;;;;;;;;;;4993238;28;20027;-96
2023/12/05 17:15:47;;;;;;;62.93;22.23;;;;;;;;;;4991377;28;20103;-96
2023/12/05 17:18:16;;;;;;;37.50;12.47;;;;;;;;;;4989700;28;20030;-96
2023/12/05 17:20:41;;;;;;;30.60;12.13;;;;;;;;;;4989128;28;20029;-96
2023/12/05 17:23:11;;;;;;;28.93;11.07;;;;;;;;;;4992229;28;20018;-96
2023/12/05 17:25:36;;;;;;;38.10;11.83;;;;;;;;;;4976308;28;20019;-88
2023/12/05 17:28:02;;;;;;;42.43;13.50;;;;;;;;;;4964714;28;20386;-88
2023/12/05 17:30:28;;;;;;;38.13;13.83;;;;;;;;;;4973409;28;20023;-88
2023/12/05 17:32:53;;;;;;;38.60;12.27;;;;;;;;;;4973675;28;20026;-88
2023/12/05 17:35:18;;;;;;;36.03;13.17;;;;;;;;;;4973860;28;20062;-88
2023/12/05 17:37:43;;;;;;;44.80;14.33;;;;;;;;;;4977331;28;20026;-88
2023/12/05 17:40:09;;;;;;;44.87;14.73;;;;;;;;;;4973023;28;20025;-87
2023/12/05 17:42:35;;;;;;;35.87;12.77;;;;;;;;;;4979684;28;20445;-88
2023/12/05 17:45:00;;;;;;;41.67;13.33;;;;;;;;;;4974903;28;20113;-88
2023/12/05 17:47:25;;;;;;;43.50;14.47;;;;;;;;;;4978189;28;20027;-88
2023/12/05 17:49:52;;;;;;;34.87;12.27;;;;;;;;;;4966170;28;20015;-88
2023/12/05 17:52:17;;;;;;;41.47;14.40;;;;;;;;;;4973829;28;20030;-88
2023/12/05 17:54:45;;;;;;;40.90;14.93;;;;;;;;;;4972393;28;20029;-88
2023/12/05 17:57:12;;;;;;;47.73;15.73;;;;;;;;;;4980405;28;20023;-88
2023/12/05 17:59:37;;;;;;;30.63;10.53;;;;;;;;;;4960154;28;20402;-86
2023/12/05 18:02:03;;;;;;;43.77;13.63;;;;;;;;;;4971619;28;20063;-88
2023/12/05 18:04:28;;;;;;;45.27;14.40;;;;;;;;;;4972443;28;20023;-88
2023/12/05 18:06:54;;;;;;;45.37;14.73;;;;;;;;;;4972082;28;20045;-89
2023/12/05 18:09:19;;;;;;;43.67;14.57;;;;;;;;;;4971820;28;20027;-88
2023/12/05 18:11:44;;;;;;;40.70;13.73;;;;;;;;;;4977333;28;20060;-89
2023/12/05 18:14:10;;;;;;;41.57;14.43;;;;;;;;;;4971948;28;20465;-89
2023/12/05 18:16:35;;;;;;;43.53;14.67;;;;;;;;;;4969213;28;20070;-90
2023/12/05 18:19:05;;;;;;;47.60;14.50;;;;;;;;;;4971389;28;20501;-90
2023/12/05 18:21:31;;;;;;;42.27;15.43;;;;;;;;;;4973413;28;20101;-89
2023/12/05 18:23:56;;;;;;;39.93;15.27;;;;;;;;;;4971596;28;20097;-89
2023/12/05 18:26:21;;;;;;;42.07;14.87;;;;;;;;;;4969838;28;20043;-90
2023/12/05 18:28:47;;;;;;;41.53;15.07;;;;;;;;;;4972873;28;20437;-88
2023/12/05 18:31:12;;;;;;;35.33;13.20;;;;;;;;;;4977964;28;20389;-89
2023/12/05 18:33:38;;;;;;;36.30;13.93;;;;;;;;;;4978174;28;20033;-88
2023/12/05 18:36:03;;;;;;;38.13;14.07;;;;;;;;;;4973892;28;20038;-88
2023/12/05 18:38:28;;;;;;;31.47;12.03;;;;;;;;;;4975528;28;20027;-89
2023/12/05 18:40:53;;;;;;;31.90;12.07;;;;;;;;;;4976063;28;20058;-89
2023/12/05 18:43:19;;;;;;;31.17;11.90;;;;;;;;;;4964903;28;20033;-89
2023/12/05 18:45:44;;;;;;;37.17;14.60;;;;;;;;;;4974206;28;20064;-91
2023/12/05 18:48:10;;;;;;;80.37;24.33;;;;;;;;;;4982624;28;20026;-90
2023/12/05 18:50:35;;;;;;;58.00;17.67;;;;;;;;;;4981816;28;20104;-89
2023/12/05 18:53:00;;;;;;;35.57;12.63;;;;;;;;;;4973987;28;20161;-89
2023/12/05 18:55:25;;;;;;;36.60;12.47;;;;;;;;;;4978001;28;20034;-89
2023/12/05 18:57:51;;;;;;;34.43;12.00;;;;;;;;;;4979158;28;20022;-90
2023/12/05 19:00:17;;;;;;;33.13;11.37;;;;;;;;;;4980576;28;20034;-91
2023/12/05 19:02:43;;;;;;;29.63;11.43;;;;;;;;;;4977693;28;20061;-90
2023/12/05 19:05:08;;;;;;;32.47;12.07;;;;;;;;;;4979938;28;20106;-91
2023/12/05 19:07:33;;;;;;;34.43;12.90;;;;;;;;;;4978803;28;20019;-90
2023/12/05 19:09:59;;;;;;;33.07;12.23;;;;;;;;;;4971488;28;20492;-90
2023/12/05 19:12:24;;;;;;;33.00;12.37;;;;;;;;;;4973227;28;20015;-89
2023/12/05 19:14:49;;;;;;;37.47;13.50;;;;;;;;;;4975404;28;20033;-88
2023/12/05 19:17:14;;;;;;;35.37;13.10;;;;;;;;;;4977544;28;20025;-89
2023/12/05 19:19:40;;;;;;;30.33;11.57;;;;;;;;;;4975370;28;20366;-89
2023/12/05 19:22:05;;;;;;;35.13;13.87;;;;;;;;;;4977789;28;20069;-89
2023/12/05 19:24:30;;;;;;;35.73;13.00;;;;;;;;;;4973951;28;20055;-88
2023/12/05 19:26:57;;;;;;;36.23;14.30;;;;;;;;;;4971928;28;20031;-89
2023/12/05 19:29:23;;;;;;;38.67;14.17;;;;;;;;;;4975076;28;20352;-89
2023/12/05 19:31:48;;;;;;;37.63;13.20;;;;;;;;;;4976829;28;20051;-90
2023/12/05 19:34:13;;;;;;;33.17;13.87;;;;;;;;;;4965978;28;20123;-88
2023/12/05 19:36:39;;;;;;;34.07;14.03;;;;;;;;;;4978763;28;20330;-88
2023/12/05 19:39:04;;;;;;;30.57;12.43;;;;;;;;;;4983034;28;20477;-94
2023/12/05 19:41:29;;;;;;;41.13;15.27;;;;;;;;;;4980085;28;20453;-94
2023/12/05 19:43:54;;;;;;;36.03;14.07;;;;;;;;;;4974532;28;20093;-94
2023/12/05 19:46:20;;;;;;;34.00;13.13;;;;;;;;;;4975253;28;20134;-93
2023/12/05 19:48:45;;;;;;;33.77;13.40;;;;;;;;;;4975719;28;20019;-93
2023/12/05 19:51:10;;;;;;;32.57;13.97;;;;;;;;;;4976843;28;20019;-93
2023/12/05 19:53:36;;;;;;;36.53;13.97;;;;;;;;;;4975334;28;20058;-95
2023/12/05 19:56:04;;;;;;;37.77;14.80;;;;;;;;;;4978764;28;20026;-96
2023/12/05 19:58:29;;;;;;;31.57;12.87;;;;;;;;;;4983269;28;20488;-95
2023/12/05 20:00:54;;;;;;;34.30;13.90;;;;;;;;;;4981714;28;20041;-92
2023/12/05 20:03:20;;;;;;;33.83;14.00;;;;;;;;;;4975063;28;20136;-92
2023/12/05 20:05:49;;;;;;;38.70;13.63;;;;;;;;;;4978835;28;20417;-94
2023/12/05 20:08:14;;;;;;;33.67;13.77;;;;;;;;;;4976103;28;20114;-92
2023/12/05 20:10:39;;;;;;;34.23;14.47;;;;;;;;;;4981604;28;20015;-94
2023/12/05 20:13:05;;;;;;;32.60;13.40;;;;;;;;;;4979832;28;20057;-93
2023/12/05 20:15:30;;;;;;;34.50;14.03;;;;;;;;;;4971943;28;20018;-93
2023/12/05 20:17:55;;;;;;;34.07;14.03;;;;;;;;;;4979598;28;20118;-94
2023/12/05 20:20:20;;;;;;;35.13;13.73;;;;;;;;;;4979717;28;20061;-95
2023/12/05 20:22:46;;;;;;;38.67;14.87;;;;;;;;;;4970857;28;20023;-95
2023/12/05 20:25:24;;;;;;;34.30;14.83;;;;;;;;;;4987786;28;20034;-95
2023/12/05 20:27:49;;;;;;;31.73;11.93;;;;;;;;;;4982812;28;20129;-93
2023/12/05 20:30:14;;;;;;;36.13;14.70;;;;;;;;;;4972218;28;20578;-92
2023/12/05 20:32:40;;;;;;;34.67;14.00;;;;;;;;;;4975339;28;20027;-91
2023/12/05 20:35:05;;;;;;;38.27;14.80;;;;;;;;;;4978589;28;20303;-91
2023/12/05 20:37:31;;;;;;;35.57;15.00;;;;;;;;;;4978508;28;20046;-91
2023/12/05 20:39:56;;;;;;;40.70;15.37;;;;;;;;;;4980211;28;20023;-90
2023/12/05 20:42:22;;;;;;;36.43;14.60;;;;;;;;;;4979738;28;20110;-92
2023/12/05 20:44:48;;;;;;;32.40;12.93;;;;;;;;;;4972702;28;20109;-91
2023/12/05 20:47:13;;;;;;;37.50;15.30;;;;;;;;;;4978700;28;20525;-92
2023/12/05 20:49:39;;;;;;;38.00;15.57;;;;;;;;;;4974703;28;20019;-92
2023/12/05 20:52:04;;;;;;;36.93;14.80;;;;;;;;;;4978335;28;20093;-91
2023/12/05 20:54:29;;;;;;;36.23;13.93;;;;;;;;;;4983861;28;20104;-91
2023/12/05 20:56:55;;;;;;;34.43;14.40;;;;;;;;;;4979893;28;20023;-92
2023/12/05 20:59:20;;;;;;;40.10;15.87;;;;;;;;;;4974057;28;20041;-91
2023/12/05 21:01:45;;;;;;;38.17;15.67;;;;;;;;;;4970244;28;20089;-92
2023/12/05 21:04:10;;;;;;;35.87;14.83;;;;;;;;;;4971118;28;20358;-91
2023/12/05 21:06:36;;;;;;;33.53;15.33;;;;;;;;;;4982022;28;20106;-91
2023/12/05 21:09:01;;;;;;;39.83;15.60;;;;;;;;;;4974067;28;20027;-92
2023/12/05 21:11:26;;;;;;;34.97;14.47;;;;;;;;;;4973804;28;20027;-92
2023/12/05 21:13:51;;;;;;;34.30;15.30;;;;;;;;;;4974175;28;20025;-92
2023/12/05 21:16:17;;;;;;;36.03;14.97;;;;;;;;;;4978503;28;20057;-92
2023/12/05 21:18:43;;;;;;;34.10;14.67;;;;;;;;;;4974529;28;20524;-91
2023/12/05 21:21:08;;;;;;;35.50;14.70;;;;;;;;;;4977435;28;20031;-91
2023/12/05 21:23:33;;;;;;;40.17;16.77;;;;;;;;;;4977237;28;20057;-91
2023/12/05 21:25:59;;;;;;;34.17;14.17;;;;;;;;;;4975127;28;20027;-91
2023/12/05 21:28:24;;;;;;;51.90;19.27;;;;;;;;;;4978689;28;20027;-92
2023/12/05 21:30:49;;;;;;;44.97;16.43;;;;;;;;;;4974765;28;20097;-91